»·PEaware :: N71074 KSNA-KBUR

N71074 :: KSNA-KBUR

FLIGHT INFORMATION

Flight Status: Arrived
Operator: Privately registered:
United States
More flights under this callsign
Pilot: Omar W. (32900)
Aircraft: CESSNA 182 SKYLANE
(C182)
More flights by this aircraft type
Origin: KSNA John Wayne-Orange Co
United States
Destination: KBUR Bob Hope-Burbank
United States
More flights between these airports :: More routes between these airports
Route: SLI V23 POPPR SMO125 SMO SMO311 SILEX
File this flight plan on PilotEdge
Remarks:
Altitude:
(Current/Filed)
4,000ft
Speed:
(Current/Filed)
150kts
Departed: 10-Jan-21 10:06 PM
Arrived: 10-Jan-21 10:46 PM
Distance/Time
Traveled:
40nm/0:40
Distance/Time
To Go:
Arrived

Flight Plot

Page will automatically refresh every two minutes.


Map Options




Map Legend


Flown Route
Filed Route
Departure Airport
Arrival Airport
Navaid (VOR, NDB)
Fix

Horizontal Profiles

Position Reports

Time Latitude Longitude Heading Altitude Ground
Speed
10-Jan-21 21:52 33.673058 -117.866157 118 62ft 0kts
10-Jan-21 21:53 33.673058 -117.866157 118 62ft 0kts
10-Jan-21 21:54 33.673058 -117.866157 118 62ft 0kts
10-Jan-21 21:55 33.673058 -117.866157 118 62ft 0kts
10-Jan-21 21:56 33.673058 -117.866157 118 62ft 0kts
10-Jan-21 21:57 33.673058 -117.866157 118 62ft 0kts
10-Jan-21 21:58 33.673058 -117.866157 118 62ft 0kts
10-Jan-21 21:59 33.673058 -117.866157 118 62ft 0kts
10-Jan-21 22:00 33.673058 -117.866157 118 62ft 0kts
10-Jan-21 22:01 33.673915 -117.867180 5 62ft 7kts
10-Jan-21 22:02 33.677833 -117.864716 27 62ft 21kts
10-Jan-21 22:03 33.679934 -117.863592 304 62ft 0kts
10-Jan-21 22:04 33.679934 -117.863592 304 62ft 0kts
10-Jan-21 22:05 33.673850 -117.868308 211 353ft 64kts
10-Jan-21 22:06 33.658447 -117.888234 235 1543ft 88kts
10-Jan-21 22:07 33.642480 -117.912073 232 2987ft 93kts
10-Jan-21 22:08 33.623929 -117.936834 232 4087ft 127kts
10-Jan-21 22:09 33.597001 -117.975359 232 4069ft 160kts
10-Jan-21 22:10 33.568588 -118.017690 235 3984ft 166kts
10-Jan-21 22:11 33.577023 -118.061820 319 3929ft 154kts
10-Jan-21 22:12 33.610305 -118.092397 327 3944ft 148kts
10-Jan-21 22:13 33.643880 -118.121358 324 3953ft 148kts
10-Jan-21 22:14 33.677895 -118.149257 325 3990ft 147kts
10-Jan-21 22:15 33.711202 -118.177820 325 4033ft 147kts
10-Jan-21 22:16 33.745106 -118.204940 327 4074ft 146kts
10-Jan-21 22:17 33.778506 -118.233185 320 4055ft 148kts
10-Jan-21 22:18 33.811667 -118.261446 326 4079ft 146kts
10-Jan-21 22:19 33.845465 -118.289785 324 4005ft 147kts
10-Jan-21 22:20 33.876626 -118.320579 319 4091ft 144kts
10-Jan-21 22:21 33.907814 -118.351118 320 4148ft 144kts
10-Jan-21 22:22 33.938498 -118.383527 321 4108ft 146kts
10-Jan-21 22:23 33.970711 -118.413460 323 4109ft 146kts
10-Jan-21 22:25 34.001349 -118.447388 320 3990ft 148kts
10-Jan-21 22:26 34.034440 -118.475896 325 4012ft 147kts
10-Jan-21 22:27 34.067813 -118.504770 330 4006ft 148kts
10-Jan-21 22:28 34.102507 -118.531675 329 4006ft 148kts
10-Jan-21 22:29 34.136980 -118.559429 328 4030ft 149kts
10-Jan-21 22:30 34.171643 -118.587179 328 4042ft 147kts
10-Jan-21 22:31 34.195294 -118.575139 63 3293ft 116kts
10-Jan-21 22:32 34.205817 -118.539573 70 2994ft 109kts
10-Jan-21 22:33 34.212826 -118.503589 75 2867ft 110kts
10-Jan-21 22:34 34.210802 -118.468896 156 2777ft 120kts
10-Jan-21 22:35 34.184405 -118.487798 221 3307ft 141kts
10-Jan-21 22:36 34.150967 -118.519476 219 3357ft 157kts
10-Jan-21 22:37 34.137099 -118.558916 312 3474ft 145kts
10-Jan-21 22:38 34.164064 -118.596584 314 3474ft 145kts
10-Jan-21 22:39 34.190814 -118.582947 65 3420ft 154kts
10-Jan-21 22:40 34.199405 -118.535804 87 3278ft 120kts
10-Jan-21 22:41 34.198102 -118.496598 87 2788ft 112kts
10-Jan-21 22:42 34.198784 -118.458923 90 2415ft 112kts
10-Jan-21 22:42 34.198491 -118.426910 87 1686ft 116kts
10-Jan-21 22:44 34.198084 -118.386479 88 1125ft 74kts
10-Jan-21 22:44 34.197871 -118.366122 91 731ft 57kts
10-Jan-21 22:45 34.197075 -118.360267 178 716ft 0kts
10-Jan-21 22:46 34.196453 -118.360182 358 714ft 0kts

Navigation Log

Ident Type
Flight plan parsing failed, navigation log unavailable